Milverton, Canada
Current Conditions -  °F | °C
As of 7:00 AM on Saturday 25 Oct 2014 (Local Time) from CYKF Reporting Station
Haze Haze  
Wind Chill: 42°   Ceiling: Unl
Heat Index: 46°   Visibility: 3mi
Dew Point: 45°   Wind: 8mph
Humidity: 93%   Direction: 230°SW
Pressure: 29.81"   Gusts: NA
Location:  43.57°N, 80.93°W
Report Text: CYKF 251100Z AUTO 23007KT 3SM BR CLR 08/07 A2981 RMK SLP100
Loading
Personal Weather Stations






























Interactive Weather Map
Tropical Storm Tracking
New forecast layout! Learn more

10-Day Weather Forecast

Advertisements
Track Severe Weather on mobile